sensor_id;sensor_type;location;lat;lon;timestamp;P1;durP1;ratioP1;P2;durP2;ratioP2
46110;SDS011;31849;55.992;37.252;2023-02-11T00:00:06;14.45;;;5.82;;
46110;SDS011;31849;55.992;37.252;2023-02-11T00:05:10;14.18;;;5.95;;
46110;SDS011;31849;55.992;37.252;2023-02-11T00:10:13;13.25;;;5.68;;
46110;SDS011;31849;55.992;37.252;2023-02-11T00:15:18;16.33;;;6.13;;
46110;SDS011;31849;55.992;37.252;2023-02-11T00:20:22;12.18;;;5.53;;
46110;SDS011;31849;55.992;37.252;2023-02-11T00:25:26;12.65;;;5.50;;
46110;SDS011;31849;55.992;37.252;2023-02-11T00:30:31;13.30;;;5.57;;
46110;SDS011;31849;55.992;37.252;2023-02-11T00:35:35;12.88;;;5.15;;
46110;SDS011;31849;55.992;37.252;2023-02-11T00:40:39;12.00;;;4.82;;
46110;SDS011;31849;55.992;37.252;2023-02-11T00:45:44;11.82;;;5.50;;
46110;SDS011;31849;55.992;37.252;2023-02-11T00:50:47;12.13;;;4.90;;
46110;SDS011;31849;55.992;37.252;2023-02-11T00:55:51;11.75;;;4.65;;
46110;SDS011;31849;55.992;37.252;2023-02-11T01:00:56;10.82;;;4.75;;
46110;SDS011;31849;55.992;37.252;2023-02-11T01:05:59;9.48;;;4.53;;
46110;SDS011;31849;55.992;37.252;2023-02-11T01:11:03;10.13;;;4.93;;
46110;SDS011;31849;55.992;37.252;2023-02-11T01:16:10;9.68;;;4.68;;
46110;SDS011;31849;55.992;37.252;2023-02-11T01:21:14;12.43;;;5.10;;
46110;SDS011;31849;55.992;37.252;2023-02-11T01:26:18;13.50;;;4.95;;
46110;SDS011;31849;55.992;37.252;2023-02-11T01:31:22;8.77;;;4.07;;
46110;SDS011;31849;55.992;37.252;2023-02-11T01:41:29;10.05;;;4.05;;
46110;SDS011;31849;55.992;37.252;2023-02-11T01:46:34;10.77;;;3.92;;
46110;SDS011;31849;55.992;37.252;2023-02-11T01:51:40;9.50;;;4.25;;
46110;SDS011;31849;55.992;37.252;2023-02-11T01:56:48;11.43;;;4.45;;
46110;SDS011;31849;55.992;37.252;2023-02-11T02:02:12;8.52;;;3.20;;
46110;SDS011;31849;55.992;37.252;2023-02-11T02:07:21;9.98;;;3.35;;
46110;SDS011;31849;55.992;37.252;2023-02-11T02:12:30;6.57;;;3.17;;
46110;SDS011;31849;55.992;37.252;2023-02-11T02:17:36;7.47;;;2.90;;
46110;SDS011;31849;55.992;37.252;2023-02-11T02:22:57;11.05;;;2.92;;
46110;SDS011;31849;55.992;37.252;2023-02-11T02:28:32;6.40;;;2.60;;
46110;SDS011;31849;55.992;37.252;2023-02-11T02:33:52;6.85;;;2.58;;
46110;SDS011;31849;55.992;37.252;2023-02-11T02:38:59;7.70;;;2.78;;
46110;SDS011;31849;55.992;37.252;2023-02-11T02:44:06;6.93;;;3.15;;
46110;SDS011;31849;55.992;37.252;2023-02-11T02:49:13;8.00;;;2.63;;
46110;SDS011;31849;55.992;37.252;2023-02-11T02:54:27;7.90;;;3.15;;
46110;SDS011;31849;55.992;37.252;2023-02-11T02:59:40;8.27;;;2.53;;
46110;SDS011;31849;55.992;37.252;2023-02-11T03:04:55;8.93;;;2.15;;
46110;SDS011;31849;55.992;37.252;2023-02-11T03:10:06;8.48;;;2.40;;
46110;SDS011;31849;55.992;37.252;2023-02-11T03:15:12;4.85;;;1.90;;
46110;SDS011;31849;55.992;37.252;2023-02-11T03:20:19;7.85;;;2.50;;
46110;SDS011;31849;55.992;37.252;2023-02-11T03:25:29;7.32;;;2.67;;
46110;SDS011;31849;55.992;37.252;2023-02-11T03:30:37;8.32;;;3.00;;
46110;SDS011;31849;55.992;37.252;2023-02-11T03:35:46;6.68;;;2.72;;
46110;SDS011;31849;55.992;37.252;2023-02-11T03:40:53;8.32;;;3.10;;
46110;SDS011;31849;55.992;37.252;2023-02-11T03:45:59;5.70;;;2.88;;
46110;SDS011;31849;55.992;37.252;2023-02-11T03:51:07;7.35;;;2.35;;
46110;SDS011;31849;55.992;37.252;2023-02-11T03:56:13;8.45;;;3.65;;
46110;SDS011;31849;55.992;37.252;2023-02-11T04:01:19;9.73;;;2.70;;
46110;SDS011;31849;55.992;37.252;2023-02-11T04:06:24;9.85;;;2.20;;
46110;SDS011;31849;55.992;37.252;2023-02-11T04:16:31;7.75;;;2.60;;
46110;SDS011;31849;55.992;37.252;2023-02-11T04:21:36;9.90;;;3.10;;
46110;SDS011;31849;55.992;37.252;2023-02-11T04:26:39;7.88;;;2.70;;
46110;SDS011;31849;55.992;37.252;2023-02-11T04:31:43;7.85;;;2.88;;
46110;SDS011;31849;55.992;37.252;2023-02-11T04:36:48;7.35;;;2.38;;
46110;SDS011;31849;55.992;37.252;2023-02-11T04:41:51;6.20;;;2.28;;
46110;SDS011;31849;55.992;37.252;2023-02-11T04:46:55;7.60;;;2.83;;
46110;SDS011;31849;55.992;37.252;2023-02-11T04:52:00;7.35;;;2.70;;
46110;SDS011;31849;55.992;37.252;2023-02-11T04:57:04;6.68;;;2.67;;
46110;SDS011;31849;55.992;37.252;2023-02-11T05:02:07;9.05;;;2.33;;
46110;SDS011;31849;55.992;37.252;2023-02-11T05:07:12;10.18;;;2.13;;
46110;SDS011;31849;55.992;37.252;2023-02-11T05:12:16;8.65;;;2.28;;
46110;SDS011;31849;55.992;37.252;2023-02-11T05:17:19;6.80;;;1.90;;
46110;SDS011;31849;55.992;37.252;2023-02-11T05:22:24;6.53;;;2.20;;
46110;SDS011;31849;55.992;37.252;2023-02-11T05:27:28;9.20;;;2.15;;
46110;SDS011;31849;55.992;37.252;2023-02-11T05:32:31;6.57;;;2.17;;
46110;SDS011;31849;55.992;37.252;2023-02-11T05:37:36;7.60;;;2.17;;
46110;SDS011;31849;55.992;37.252;2023-02-11T05:42:40;9.02;;;2.22;;
46110;SDS011;31849;55.992;37.252;2023-02-11T05:47:43;7.75;;;2.47;;
46110;SDS011;31849;55.992;37.252;2023-02-11T05:52:48;5.85;;;2.13;;
46110;SDS011;31849;55.992;37.252;2023-02-11T05:57:52;6.15;;;2.25;;
46110;SDS011;31849;55.992;37.252;2023-02-11T06:02:55;7.38;;;1.98;;
46110;SDS011;31849;55.992;37.252;2023-02-11T06:08:00;10.27;;;2.30;;
46110;SDS011;31849;55.992;37.252;2023-02-11T06:18:07;6.82;;;1.90;;
46110;SDS011;31849;55.992;37.252;2023-02-11T06:23:11;8.75;;;2.72;;
46110;SDS011;31849;55.992;37.252;2023-02-11T06:28:15;7.22;;;2.88;;
46110;SDS011;31849;55.992;37.252;2023-02-11T06:33:18;8.70;;;2.40;;
46110;SDS011;31849;55.992;37.252;2023-02-11T06:38:23;9.27;;;2.38;;
46110;SDS011;31849;55.992;37.252;2023-02-11T06:43:27;9.85;;;3.10;;
46110;SDS011;31849;55.992;37.252;2023-02-11T06:48:30;8.60;;;2.72;;
46110;SDS011;31849;55.992;37.252;2023-02-11T06:53:35;10.63;;;2.90;;
46110;SDS011;31849;55.992;37.252;2023-02-11T06:58:40;6.07;;;2.45;;
46110;SDS011;31849;55.992;37.252;2023-02-11T07:03:44;6.95;;;2.95;;
46110;SDS011;31849;55.992;37.252;2023-02-11T07:08:49;8.35;;;2.60;;
46110;SDS011;31849;55.992;37.252;2023-02-11T07:13:53;10.20;;;2.65;;
46110;SDS011;31849;55.992;37.252;2023-02-11T07:18:58;6.72;;;2.65;;
46110;SDS011;31849;55.992;37.252;2023-02-11T07:24:04;7.97;;;2.90;;
46110;SDS011;31849;55.992;37.252;2023-02-11T07:29:11;7.78;;;2.35;;
46110;SDS011;31849;55.992;37.252;2023-02-11T07:34:15;8.02;;;2.40;;
46110;SDS011;31849;55.992;37.252;2023-02-11T07:39:20;8.73;;;2.83;;
46110;SDS011;31849;55.992;37.252;2023-02-11T07:44:23;7.60;;;2.97;;
46110;SDS011;31849;55.992;37.252;2023-02-11T07:49:27;7.28;;;2.78;;
46110;SDS011;31849;55.992;37.252;2023-02-11T07:54:32;14.48;;;6.13;;
46110;SDS011;31849;55.992;37.252;2023-02-11T07:59:35;8.82;;;2.60;;
46110;SDS011;31849;55.992;37.252;2023-02-11T08:04:39;7.03;;;2.63;;
46110;SDS011;31849;55.992;37.252;2023-02-11T08:09:44;13.18;;;3.95;;
46110;SDS011;31849;55.992;37.252;2023-02-11T08:14:47;8.35;;;3.00;;
46110;SDS011;31849;55.992;37.252;2023-02-11T08:19:51;8.70;;;3.17;;
46110;SDS011;31849;55.992;37.252;2023-02-11T08:24:56;8.82;;;3.30;;
46110;SDS011;31849;55.992;37.252;2023-02-11T08:30:00;10.88;;;3.70;;
46110;SDS011;31849;55.992;37.252;2023-02-11T08:35:05;11.55;;;4.30;;
46110;SDS011;31849;55.992;37.252;2023-02-11T08:40:11;9.82;;;4.78;;
46110;SDS011;31849;55.992;37.252;2023-02-11T08:45:14;11.75;;;4.88;;
46110;SDS011;31849;55.992;37.252;2023-02-11T08:50:18;9.93;;;4.93;;
46110;SDS011;31849;55.992;37.252;2023-02-11T08:55:23;11.82;;;5.38;;
46110;SDS011;31849;55.992;37.252;2023-02-11T09:05:30;17.50;;;5.25;;
46110;SDS011;31849;55.992;37.252;2023-02-11T09:10:35;10.05;;;4.78;;
46110;SDS011;31849;55.992;37.252;2023-02-11T09:15:38;11.20;;;5.35;;
46110;SDS011;31849;55.992;37.252;2023-02-11T09:20:42;10.63;;;4.72;;
46110;SDS011;31849;55.992;37.252;2023-02-11T09:25:46;11.20;;;4.63;;
46110;SDS011;31849;55.992;37.252;2023-02-11T09:30:50;12.07;;;4.82;;
46110;SDS011;31849;55.992;37.252;2023-02-11T09:35:54;13.30;;;5.10;;
46110;SDS011;31849;55.992;37.252;2023-02-11T09:40:59;11.68;;;4.80;;
46110;SDS011;31849;55.992;37.252;2023-02-11T09:46:08;7.57;;;3.47;;
46110;SDS011;31849;55.992;37.252;2023-02-11T09:51:17;12.05;;;4.50;;
46110;SDS011;31849;55.992;37.252;2023-02-11T09:56:31;10.00;;;3.80;;
46110;SDS011;31849;55.992;37.252;2023-02-11T10:06:42;9.60;;;3.97;;
46110;SDS011;31849;55.992;37.252;2023-02-11T10:11:51;8.48;;;3.78;;
46110;SDS011;31849;55.992;37.252;2023-02-11T10:17:05;14.68;;;3.90;;
46110;SDS011;31849;55.992;37.252;2023-02-11T10:22:21;10.00;;;4.28;;
46110;SDS011;31849;55.992;37.252;2023-02-11T10:27:31;12.45;;;4.00;;
46110;SDS011;31849;55.992;37.252;2023-02-11T10:32:37;8.52;;;3.60;;
46110;SDS011;31849;55.992;37.252;2023-02-11T10:37:46;9.35;;;4.40;;
46110;SDS011;31849;55.992;37.252;2023-02-11T10:42:52;12.73;;;4.20;;
46110;SDS011;31849;55.992;37.252;2023-02-11T10:47:58;10.38;;;3.63;;
46110;SDS011;31849;55.992;37.252;2023-02-11T10:53:14;11.80;;;4.25;;
46110;SDS011;31849;55.992;37.252;2023-02-11T10:58:24;10.20;;;3.90;;
46110;SDS011;31849;55.992;37.252;2023-02-11T11:03:31;11.02;;;4.40;;
46110;SDS011;31849;55.992;37.252;2023-02-11T11:08:40;14.00;;;4.88;;
46110;SDS011;31849;55.992;37.252;2023-02-11T11:13:54;12.95;;;4.85;;
46110;SDS011;31849;55.992;37.252;2023-02-11T11:19:13;12.90;;;5.03;;
46110;SDS011;31849;55.992;37.252;2023-02-11T11:24:22;13.10;;;5.40;;
46110;SDS011;31849;55.992;37.252;2023-02-11T11:29:32;12.68;;;4.82;;
46110;SDS011;31849;55.992;37.252;2023-02-11T11:34:39;11.65;;;5.05;;
46110;SDS011;31849;55.992;37.252;2023-02-11T11:39:47;10.23;;;4.70;;
46110;SDS011;31849;55.992;37.252;2023-02-11T11:44:59;8.07;;;4.30;;
46110;SDS011;31849;55.992;37.252;2023-02-11T11:50:16;9.70;;;4.78;;
46110;SDS011;31849;55.992;37.252;2023-02-11T11:55:28;10.85;;;4.85;;
46110;SDS011;31849;55.992;37.252;2023-02-11T12:00:39;11.82;;;5.72;;
46110;SDS011;31849;55.992;37.252;2023-02-11T12:05:57;11.00;;;5.63;;
46110;SDS011;31849;55.992;37.252;2023-02-11T12:11:23;13.40;;;5.63;;
46110;SDS011;31849;55.992;37.252;2023-02-11T12:16:38;12.63;;;5.63;;
46110;SDS011;31849;55.992;37.252;2023-02-11T12:21:51;12.65;;;5.35;;
46110;SDS011;31849;55.992;37.252;2023-02-11T12:27:04;13.13;;;6.03;;
46110;SDS011;31849;55.992;37.252;2023-02-11T12:32:16;12.52;;;5.75;;
46110;SDS011;31849;55.992;37.252;2023-02-11T12:37:31;11.88;;;6.05;;
46110;SDS011;31849;55.992;37.252;2023-02-11T12:42:47;13.48;;;6.07;;
46110;SDS011;31849;55.992;37.252;2023-02-11T12:48:20;12.77;;;5.60;;
46110;SDS011;31849;55.992;37.252;2023-02-11T12:59:18;12.65;;;5.95;;
46110;SDS011;31849;55.992;37.252;2023-02-11T13:04:34;16.67;;;6.57;;
46110;SDS011;31849;55.992;37.252;2023-02-11T13:09:43;18.45;;;7.22;;
46110;SDS011;31849;55.992;37.252;2023-02-11T13:14:53;16.88;;;5.97;;
46110;SDS011;31849;55.992;37.252;2023-02-11T13:20:04;17.75;;;6.32;;
46110;SDS011;31849;55.992;37.252;2023-02-11T13:25:18;17.83;;;7.20;;
46110;SDS011;31849;55.992;37.252;2023-02-11T13:30:31;19.17;;;7.30;;
46110;SDS011;31849;55.992;37.252;2023-02-11T13:36:15;16.48;;;6.95;;
46110;SDS011;31849;55.992;37.252;2023-02-11T13:41:22;19.40;;;7.32;;
46110;SDS011;31849;55.992;37.252;2023-02-11T13:46:45;19.15;;;8.13;;
46110;SDS011;31849;55.992;37.252;2023-02-11T13:52:20;22.27;;;9.52;;
46110;SDS011;31849;55.992;37.252;2023-02-11T13:57:28;21.55;;;10.32;;
46110;SDS011;31849;55.992;37.252;2023-02-11T14:02:39;22.15;;;8.85;;
46110;SDS011;31849;55.992;37.252;2023-02-11T14:08:12;25.15;;;9.60;;
46110;SDS011;31849;55.992;37.252;2023-02-11T14:19:29;22.23;;;10.27;;
46110;SDS011;31849;55.992;37.252;2023-02-11T14:24:46;18.02;;;8.57;;
46110;SDS011;31849;55.992;37.252;2023-02-11T14:29:57;24.58;;;8.80;;
46110;SDS011;31849;55.992;37.252;2023-02-11T14:35:11;24.00;;;10.52;;
46110;SDS011;31849;55.992;37.252;2023-02-11T14:40:26;23.35;;;10.13;;
46110;SDS011;31849;55.992;37.252;2023-02-11T14:45:33;22.23;;;9.93;;
46110;SDS011;31849;55.992;37.252;2023-02-11T14:50:39;25.30;;;10.60;;
46110;SDS011;31849;55.992;37.252;2023-02-11T14:55:47;19.60;;;8.65;;
46110;SDS011;31849;55.992;37.252;2023-02-11T15:00:54;23.33;;;9.73;;
46110;SDS011;31849;55.992;37.252;2023-02-11T15:06:00;19.25;;;6.75;;
46110;SDS011;31849;55.992;37.252;2023-02-11T15:11:09;20.35;;;9.40;;
46110;SDS011;31849;55.992;37.252;2023-02-11T15:16:15;21.00;;;9.68;;
46110;SDS011;31849;55.992;37.252;2023-02-11T15:21:22;20.55;;;9.18;;
46110;SDS011;31849;55.992;37.252;2023-02-11T15:26:29;26.63;;;10.15;;
46110;SDS011;31849;55.992;37.252;2023-02-11T15:31:33;18.73;;;7.95;;
46110;SDS011;31849;55.992;37.252;2023-02-11T15:36:37;27.23;;;10.02;;
46110;SDS011;31849;55.992;37.252;2023-02-11T15:41:44;25.30;;;9.88;;
46110;SDS011;31849;55.992;37.252;2023-02-11T15:46:47;24.83;;;9.50;;
46110;SDS011;31849;55.992;37.252;2023-02-11T15:51:51;24.52;;;10.23;;
46110;SDS011;31849;55.992;37.252;2023-02-11T15:57:00;23.83;;;10.52;;
46110;SDS011;31849;55.992;37.252;2023-02-11T16:02:07;23.63;;;10.85;;
46110;SDS011;31849;55.992;37.252;2023-02-11T16:12:50;21.95;;;8.60;;
46110;SDS011;31849;55.992;37.252;2023-02-11T16:17:55;21.95;;;9.75;;
46110;SDS011;31849;55.992;37.252;2023-02-11T16:22:59;23.27;;;9.40;;
46110;SDS011;31849;55.992;37.252;2023-02-11T16:28:11;25.02;;;10.30;;
46110;SDS011;31849;55.992;37.252;2023-02-11T16:33:17;22.98;;;9.13;;
46110;SDS011;31849;55.992;37.252;2023-02-11T16:38:22;21.80;;;10.80;;
46110;SDS011;31849;55.992;37.252;2023-02-11T16:43:27;23.95;;;8.63;;
46110;SDS011;31849;55.992;37.252;2023-02-11T16:48:30;16.45;;;7.25;;
46110;SDS011;31849;55.992;37.252;2023-02-11T16:53:35;18.52;;;8.25;;
46110;SDS011;31849;55.992;37.252;2023-02-11T16:58:40;19.80;;;8.68;;
46110;SDS011;31849;55.992;37.252;2023-02-11T17:03:44;18.95;;;9.02;;
46110;SDS011;31849;55.992;37.252;2023-02-11T17:08:47;18.50;;;7.60;;
46110;SDS011;31849;55.992;37.252;2023-02-11T17:13:52;20.42;;;9.25;;
46110;SDS011;31849;55.992;37.252;2023-02-11T17:18:56;19.58;;;8.80;;
46110;SDS011;31849;55.992;37.252;2023-02-11T17:23:59;17.85;;;9.20;;
46110;SDS011;31849;55.992;37.252;2023-02-11T17:29:05;21.63;;;9.63;;
46110;SDS011;31849;55.992;37.252;2023-02-11T17:34:09;22.20;;;9.48;;
46110;SDS011;31849;55.992;37.252;2023-02-11T17:39:13;18.65;;;9.18;;
46110;SDS011;31849;55.992;37.252;2023-02-11T17:44:18;19.00;;;8.88;;
46110;SDS011;31849;55.992;37.252;2023-02-11T17:54:25;20.08;;;8.63;;
46110;SDS011;31849;55.992;37.252;2023-02-11T17:59:30;23.13;;;10.23;;
46110;SDS011;31849;55.992;37.252;2023-02-11T18:04:36;22.88;;;9.88;;
46110;SDS011;31849;55.992;37.252;2023-02-11T18:09:39;20.20;;;9.10;;
46110;SDS011;31849;55.992;37.252;2023-02-11T18:14:45;20.57;;;9.10;;
46110;SDS011;31849;55.992;37.252;2023-02-11T18:19:48;23.90;;;8.15;;
46110;SDS011;31849;55.992;37.252;2023-02-11T18:24:52;18.02;;;8.95;;
46110;SDS011;31849;55.992;37.252;2023-02-11T18:29:57;21.92;;;9.65;;
46110;SDS011;31849;55.992;37.252;2023-02-11T18:40:04;19.33;;;8.93;;
46110;SDS011;31849;55.992;37.252;2023-02-11T18:45:10;16.10;;;7.82;;
46110;SDS011;31849;55.992;37.252;2023-02-11T18:50:16;17.35;;;9.57;;
46110;SDS011;31849;55.992;37.252;2023-02-11T18:55:22;18.92;;;10.00;;
46110;SDS011;31849;55.992;37.252;2023-02-11T19:00:28;18.05;;;9.43;;
46110;SDS011;31849;55.992;37.252;2023-02-11T19:05:31;16.25;;;8.88;;
46110;SDS011;31849;55.992;37.252;2023-02-11T19:10:43;20.45;;;9.57;;
46110;SDS011;31849;55.992;37.252;2023-02-11T19:15:50;20.38;;;10.27;;
46110;SDS011;31849;55.992;37.252;2023-02-11T19:20:54;18.70;;;9.05;;
46110;SDS011;31849;55.992;37.252;2023-02-11T19:25:57;18.52;;;8.35;;
46110;SDS011;31849;55.992;37.252;2023-02-11T19:31:06;15.57;;;8.43;;
46110;SDS011;31849;55.992;37.252;2023-02-11T19:36:11;14.65;;;8.70;;
46110;SDS011;31849;55.992;37.252;2023-02-11T19:41:17;16.20;;;8.68;;
46110;SDS011;31849;55.992;37.252;2023-02-11T19:46:24;14.80;;;7.95;;
46110;SDS011;31849;55.992;37.252;2023-02-11T19:51:29;15.10;;;8.55;;
46110;SDS011;31849;55.992;37.252;2023-02-11T19:56:34;15.20;;;8.00;;
46110;SDS011;31849;55.992;37.252;2023-02-11T20:01:40;16.15;;;8.63;;
46110;SDS011;31849;55.992;37.252;2023-02-11T20:06:45;16.98;;;8.45;;
46110;SDS011;31849;55.992;37.252;2023-02-11T20:11:50;16.70;;;8.13;;
46110;SDS011;31849;55.992;37.252;2023-02-11T20:16:54;17.45;;;8.80;;
46110;SDS011;31849;55.992;37.252;2023-02-11T20:21:58;14.80;;;8.73;;
46110;SDS011;31849;55.992;37.252;2023-02-11T20:27:02;14.52;;;7.53;;
46110;SDS011;31849;55.992;37.252;2023-02-11T20:32:10;15.55;;;8.70;;
46110;SDS011;31849;55.992;37.252;2023-02-11T20:37:14;13.77;;;7.70;;
46110;SDS011;31849;55.992;37.252;2023-02-11T20:42:18;12.68;;;7.43;;
46110;SDS011;31849;55.992;37.252;2023-02-11T20:47:23;15.73;;;8.00;;
46110;SDS011;31849;55.992;37.252;2023-02-11T20:52:26;13.95;;;8.30;;
46110;SDS011;31849;55.992;37.252;2023-02-11T20:57:30;12.50;;;7.05;;
46110;SDS011;31849;55.992;37.252;2023-02-11T21:02:37;16.70;;;8.23;;
46110;SDS011;31849;55.992;37.252;2023-02-11T21:07:40;15.88;;;8.00;;
46110;SDS011;31849;55.992;37.252;2023-02-11T21:12:44;13.30;;;7.93;;
46110;SDS011;31849;55.992;37.252;2023-02-11T21:17:51;14.80;;;7.30;;
46110;SDS011;31849;55.992;37.252;2023-02-11T21:22:55;13.02;;;7.43;;
46110;SDS011;31849;55.992;37.252;2023-02-11T21:27:58;14.77;;;7.68;;
46110;SDS011;31849;55.992;37.252;2023-02-11T21:33:03;15.02;;;8.00;;
46110;SDS011;31849;55.992;37.252;2023-02-11T21:38:07;14.15;;;7.60;;
46110;SDS011;31849;55.992;37.252;2023-02-11T21:43:11;15.30;;;8.27;;
46110;SDS011;31849;55.992;37.252;2023-02-11T21:48:16;13.05;;;7.75;;
46110;SDS011;31849;55.992;37.252;2023-02-11T21:53:20;10.90;;;6.70;;
46110;SDS011;31849;55.992;37.252;2023-02-11T21:58:23;13.20;;;7.38;;
46110;SDS011;31849;55.992;37.252;2023-02-11T22:03:28;15.68;;;8.23;;
46110;SDS011;31849;55.992;37.252;2023-02-11T22:13:35;11.07;;;6.90;;
46110;SDS011;31849;55.992;37.252;2023-02-11T22:18:40;11.07;;;6.57;;
46110;SDS011;31849;55.992;37.252;2023-02-11T22:23:46;12.88;;;6.35;;
46110;SDS011;31849;55.992;37.252;2023-02-11T22:28:50;11.68;;;7.28;;
46110;SDS011;31849;55.992;37.252;2023-02-11T22:33:55;11.60;;;6.90;;
46110;SDS011;31849;55.992;37.252;2023-02-11T22:38:59;10.75;;;6.40;;
46110;SDS011;31849;55.992;37.252;2023-02-11T22:44:04;11.82;;;6.90;;
46110;SDS011;31849;55.992;37.252;2023-02-11T22:49:09;13.55;;;6.97;;
46110;SDS011;31849;55.992;37.252;2023-02-11T22:54:16;10.40;;;6.13;;
46110;SDS011;31849;55.992;37.252;2023-02-11T23:04:25;8.43;;;4.80;;
46110;SDS011;31849;55.992;37.252;2023-02-11T23:09:29;8.15;;;5.30;;
46110;SDS011;31849;55.992;37.252;2023-02-11T23:14:32;7.53;;;3.60;;
46110;SDS011;31849;55.992;37.252;2023-02-11T23:19:37;7.10;;;3.45;;
46110;SDS011;31849;55.992;37.252;2023-02-11T23:29:44;4.60;;;3.00;;
46110;SDS011;31849;55.992;37.252;2023-02-11T23:34:49;5.23;;;2.50;;
46110;SDS011;31849;55.992;37.252;2023-02-11T23:39:53;4.65;;;2.67;;
46110;SDS011;31849;55.992;37.252;2023-02-11T23:44:56;4.00;;;2.60;;
46110;SDS011;31849;55.992;37.252;2023-02-11T23:50:01;4.03;;;2.38;;
46110;SDS011;31849;55.992;37.252;2023-02-11T23:55:05;6.18;;;3.10;;
